createdAt,value
2024-02-14T00:00:14.963Z,95244.69
2024-02-14T00:02:50.484Z,95252.09
2024-02-14T00:05:17.524Z,95258.47
2024-02-14T00:07:44.366Z,95257.25
2024-02-14T00:10:11.082Z,95251.31
2024-02-14T00:12:38.303Z,95256.44
2024-02-14T00:15:07.235Z,95254.13
2024-02-14T00:17:35.284Z,95259.88
2024-02-14T00:20:02.261Z,95267.19
2024-02-14T00:22:28.895Z,95266.94
2024-02-14T00:24:55.761Z,95273.50
2024-02-14T00:27:22.417Z,95269.34
2024-02-14T00:29:49.558Z,95275.59
2024-02-14T00:32:16.497Z,95267.81
2024-02-14T00:34:43.462Z,95267.38
2024-02-14T00:37:10.176Z,95270.69
2024-02-14T00:39:37.122Z,95272.84
2024-02-14T00:42:03.969Z,95269.16
2024-02-14T00:44:30.715Z,95272.13
2024-02-14T00:47:00.774Z,95267.19
2024-02-14T00:49:27.729Z,95268.41
2024-02-14T00:51:54.459Z,95275.72
2024-02-14T00:54:21.390Z,95277.47
2024-02-14T00:56:48.029Z,95272.53
2024-02-14T00:59:14.743Z,95280.94
2024-02-14T01:01:41.404Z,95280.25
2024-02-14T01:04:08.447Z,95275.81
2024-02-14T01:06:35.307Z,95278.28
2024-02-14T01:09:02.438Z,95278.47
2024-02-14T01:11:29.798Z,95278.72
2024-02-14T01:13:56.508Z,95287.19
2024-02-14T01:16:23.400Z,95287.53
2024-02-14T01:18:51.109Z,95287.72
2024-02-14T01:21:17.870Z,95294.31
2024-02-14T01:23:44.574Z,95291.47
2024-02-14T01:26:11.262Z,95289.81
2024-02-14T01:28:39.117Z,95291.31
2024-02-14T01:31:05.768Z,95284.38
2024-02-14T01:33:32.808Z,95292.66
2024-02-14T01:36:00.227Z,95290.44
2024-02-14T01:38:26.818Z,95292.47
2024-02-14T01:40:53.672Z,95293.53
2024-02-14T01:43:21.928Z,95290.19
2024-02-14T01:45:48.880Z,95282.72
2024-02-14T01:48:19.853Z,95287.09
2024-02-14T01:50:47.043Z,95294.03
2024-02-14T01:53:14.147Z,95286.41
2024-02-14T01:55:41.070Z,95283.41
2024-02-14T01:58:08.111Z,95288.44
2024-02-14T02:00:35.581Z,95284.81
2024-02-14T02:03:06.610Z,95288.63
2024-02-14T02:05:35.291Z,95277.50
2024-02-14T02:08:02.587Z,95281.75
2024-02-14T02:10:30.457Z,95290.63
2024-02-14T02:13:01.376Z,95287.31
2024-02-14T02:15:29.827Z,95300.03
2024-02-14T02:17:57.260Z,95289.81
2024-02-14T02:20:23.981Z,95288.25
2024-02-14T02:22:50.735Z,95292.97
2024-02-14T02:25:17.373Z,95291.59
2024-02-14T02:27:44.379Z,95294.44
2024-02-14T02:30:11.649Z,95290.06
2024-02-14T02:32:39.043Z,95290.31
2024-02-14T02:35:06.054Z,95292.16
2024-02-14T02:37:32.929Z,95296.31
2024-02-14T02:39:59.589Z,95295.88
2024-02-14T02:42:26.242Z,95296.25
2024-02-14T02:44:53.110Z,95295.63
2024-02-14T02:47:19.843Z,95295.03
2024-02-14T02:49:46.897Z,95302.91
2024-02-14T02:52:13.655Z,95293.22
2024-02-14T02:54:44.999Z,95293.09
2024-02-14T02:57:12.513Z,95296.13
2024-02-14T02:59:40.524Z,95294.03
2024-02-14T03:02:09.685Z,95292.22
2024-02-14T03:04:46.228Z,95301.84
2024-02-14T03:07:19.897Z,95298.84
2024-02-14T03:09:46.575Z,95312.00
2024-02-14T03:12:17.261Z,95300.63
2024-02-14T03:14:45.350Z,95297.81
2024-02-14T03:17:12.508Z,95301.88
2024-02-14T03:19:40.421Z,95304.75
2024-02-14T03:22:10.334Z,95303.63
2024-02-14T03:24:38.389Z,95302.63
2024-02-14T03:27:08.406Z,95304.63
2024-02-14T03:29:36.847Z,95306.19
2024-02-14T03:32:05.792Z,95302.63
2024-02-14T03:34:34.973Z,95295.75
2024-02-14T03:37:03.339Z,95304.97
2024-02-14T03:39:30.488Z,95302.88
2024-02-14T03:41:57.326Z,95302.28
2024-02-14T03:44:24.470Z,95300.50
2024-02-14T03:46:51.322Z,95295.06
2024-02-14T03:49:18.205Z,95290.16
2024-02-14T03:51:45.031Z,95292.59
2024-02-14T03:54:12.971Z,95297.63
2024-02-14T03:56:39.979Z,95299.22
2024-02-14T03:59:07.230Z,95295.84
2024-02-14T04:01:34.100Z,95296.13
2024-02-14T04:04:01.063Z,95295.50
2024-02-14T04:06:28.336Z,95301.56
2024-02-14T04:08:55.386Z,95302.66
2024-02-14T04:11:22.038Z,95294.53
2024-02-14T04:13:48.735Z,95293.66
2024-02-14T04:16:15.330Z,95300.03
2024-02-14T04:18:43.685Z,95301.06
2024-02-14T04:21:10.713Z,95303.19
2024-02-14T04:23:37.563Z,95294.59
2024-02-14T04:26:04.520Z,95299.63
2024-02-14T04:28:31.148Z,95301.50
2024-02-14T04:30:58.234Z,95296.47
2024-02-14T04:33:25.442Z,95301.50
2024-02-14T04:35:52.289Z,95297.19
2024-02-14T04:38:20.959Z,95299.75
2024-02-14T04:40:47.589Z,95295.66
2024-02-14T04:43:14.292Z,95304.81
2024-02-14T04:45:41.039Z,95301.13
2024-02-14T04:48:09.187Z,95298.72
2024-02-14T04:50:36.068Z,95289.75
2024-02-14T04:53:02.736Z,95293.53
2024-02-14T04:55:30.409Z,95293.59
2024-02-14T04:57:57.138Z,95289.75
2024-02-14T05:00:23.951Z,95284.75
2024-02-14T05:02:50.870Z,95286.63
2024-02-14T05:05:17.782Z,95282.88
2024-02-14T05:07:44.684Z,95287.78
2024-02-14T05:10:11.382Z,95302.41
2024-02-14T05:12:38.396Z,95289.03
2024-02-14T05:15:05.404Z,95286.47
2024-02-14T05:17:32.449Z,95288.69
2024-02-14T05:19:59.412Z,95284.38
2024-02-14T05:22:26.209Z,95294.50
2024-02-14T05:24:52.870Z,95288.59
2024-02-14T05:27:19.542Z,95292.72
2024-02-14T05:29:46.385Z,95290.59
2024-02-14T05:32:13.019Z,95288.50
2024-02-14T05:34:39.664Z,95288.72
2024-02-14T05:37:07.083Z,95293.19
2024-02-14T05:39:33.790Z,95304.34
2024-02-14T05:42:00.640Z,95295.94
2024-02-14T05:44:28.661Z,95301.22
2024-02-14T05:46:56.135Z,95295.22
2024-02-14T05:49:23.360Z,95280.69
2024-02-14T05:51:51.199Z,95290.66
2024-02-14T05:54:17.952Z,95293.56
2024-02-14T05:56:44.562Z,95302.94
2024-02-14T05:59:11.330Z,95301.34
2024-02-14T06:01:38.008Z,95308.47
2024-02-14T06:04:04.846Z,95302.22
2024-02-14T06:06:33.501Z,95309.00
2024-02-14T06:09:00.283Z,95309.09
2024-02-14T06:11:27.101Z,95312.97
2024-02-14T06:13:54.373Z,95315.03
2024-02-14T06:16:20.986Z,95313.03
2024-02-14T06:18:47.885Z,95323.38
2024-02-14T06:21:14.649Z,95319.13
2024-02-14T06:23:41.510Z,95320.69
2024-02-14T06:26:08.170Z,95325.50
2024-02-14T06:28:34.840Z,95324.50
2024-02-14T06:31:02.022Z,95331.41
2024-02-14T06:33:29.630Z,95337.16
2024-02-14T06:35:56.787Z,95338.34
2024-02-14T06:38:23.535Z,95341.19
2024-02-14T06:40:50.602Z,95342.44
2024-02-14T06:43:17.292Z,95351.31
2024-02-14T06:45:44.819Z,95351.78
2024-02-14T06:48:11.818Z,95345.84
2024-02-14T06:50:38.639Z,95346.88
2024-02-14T06:53:05.882Z,95346.03
2024-02-14T06:55:33.402Z,95344.84
2024-02-14T06:58:00.710Z,95348.31
2024-02-14T07:00:27.572Z,95344.22
2024-02-14T07:02:55.132Z,95344.66
2024-02-14T07:05:21.764Z,95340.06
2024-02-14T07:07:48.798Z,95343.44
2024-02-14T07:10:15.630Z,95351.47
2024-02-14T07:12:42.761Z,95345.94
2024-02-14T07:15:09.915Z,95345.09
2024-02-14T07:17:37.038Z,95350.56
2024-02-14T07:20:04.482Z,95350.19
2024-02-14T07:22:32.029Z,95350.88
2024-02-14T07:24:58.912Z,95357.34
2024-02-14T07:27:25.665Z,95358.72
2024-02-14T07:29:52.682Z,95355.91
2024-02-14T07:32:19.766Z,95360.66
2024-02-14T07:34:47.419Z,95371.84
2024-02-14T07:37:16.132Z,95370.13
2024-02-14T07:39:42.871Z,95372.38
2024-02-14T07:42:09.582Z,95374.41
2024-02-14T07:44:36.324Z,95380.88
2024-02-14T07:47:04.825Z,95380.88
2024-02-14T07:49:33.408Z,95391.00
2024-02-14T07:52:00.758Z,95382.06
2024-02-14T07:54:28.706Z,95383.59
2024-02-14T07:56:56.162Z,95375.75
2024-02-14T07:59:22.824Z,95384.34
2024-02-14T08:01:49.518Z,95390.53
2024-02-14T08:04:17.254Z,95389.16
2024-02-14T08:06:46.058Z,95385.13
2024-02-14T08:09:12.829Z,95386.91
2024-02-14T08:11:39.674Z,95374.06
2024-02-14T08:14:06.574Z,95382.13
2024-02-14T08:16:33.569Z,95389.34
2024-02-14T08:19:00.775Z,95382.31
2024-02-14T08:21:31.696Z,95387.56
2024-02-14T08:24:00.816Z,95380.69
2024-02-14T08:26:28.459Z,95379.38
2024-02-14T08:28:55.189Z,95383.13
2024-02-14T08:31:21.961Z,95378.50
2024-02-14T08:33:48.894Z,95387.91
2024-02-14T08:36:18.629Z,95388.50
2024-02-14T08:38:45.616Z,95397.09
2024-02-14T08:41:13.399Z,95385.13
2024-02-14T08:43:40.226Z,95395.53
2024-02-14T08:46:13.046Z,95390.81
2024-02-14T08:48:47.572Z,95387.78
2024-02-14T08:51:15.721Z,95380.31
2024-02-14T08:53:46.581Z,95378.25
2024-02-14T08:56:14.292Z,95375.41
2024-02-14T08:58:41.312Z,95382.13
2024-02-14T09:01:14.134Z,95375.03
2024-02-14T09:03:49.990Z,95385.66
2024-02-14T09:06:19.275Z,95373.06
2024-02-14T09:08:46.436Z,95392.13
2024-02-14T09:11:13.680Z,95385.34
2024-02-14T09:13:43.584Z,95396.63
2024-02-14T09:16:11.482Z,95373.63
2024-02-14T09:18:38.702Z,95403.16
2024-02-14T09:21:07.094Z,95398.47
2024-02-14T09:23:34.326Z,95401.03
2024-02-14T09:26:01.363Z,95375.81
2024-02-14T09:28:28.072Z,95376.50
2024-02-14T09:30:56.026Z,95388.72
2024-02-14T09:33:22.934Z,95407.00
2024-02-14T09:35:50.025Z,95389.59
2024-02-14T09:38:16.767Z,95389.94
2024-02-14T09:40:44.007Z,95392.81
2024-02-14T09:43:34.134Z,95405.16
2024-02-14T09:46:01.039Z,95432.78
2024-02-14T09:48:28.483Z,95431.00
2024-02-14T09:50:56.183Z,95430.63
2024-02-14T09:53:24.065Z,95442.47
2024-02-14T09:55:55.624Z,95404.69
2024-02-14T09:58:23.280Z,95439.09
2024-02-14T10:00:50.070Z,95422.38
2024-02-14T10:03:17.421Z,95420.34
2024-02-14T10:05:44.162Z,95418.41
2024-02-14T10:08:12.007Z,95414.44
2024-02-14T10:10:39.061Z,95391.34
2024-02-14T10:13:06.667Z,95387.00
2024-02-14T10:15:33.632Z,95393.56
2024-02-14T10:18:01.165Z,95399.16
2024-02-14T10:20:28.008Z,95357.06
2024-02-14T10:23:01.809Z,95392.69
2024-02-14T10:25:28.447Z,95399.84
2024-02-14T10:27:55.604Z,95359.59
2024-02-14T10:30:23.004Z,95354.97
2024-02-14T10:32:50.487Z,95372.69
2024-02-14T10:35:18.424Z,95373.25
2024-02-14T10:37:45.374Z,95350.94
2024-02-14T10:40:12.193Z,95387.38
2024-02-14T10:42:38.855Z,95385.50
2024-02-14T10:45:06.911Z,95391.06
2024-02-14T10:47:37.571Z,95412.91
2024-02-14T10:50:08.468Z,95387.34
2024-02-14T10:52:37.460Z,95383.94
2024-02-14T10:55:05.325Z,95399.81
2024-02-14T10:57:35.181Z,95380.25
2024-02-14T11:00:04.164Z,95383.97
2024-02-14T11:02:31.865Z,95404.09
2024-02-14T11:04:58.828Z,95398.28
2024-02-14T11:07:28.909Z,95402.97
2024-02-14T11:10:21.742Z,95389.53
2024-02-14T11:12:49.937Z,95383.28
2024-02-14T11:15:24.379Z,95373.88
2024-02-14T11:17:53.471Z,95342.78
2024-02-14T11:20:21.681Z,95364.97
2024-02-14T11:22:56.279Z,95383.91
2024-02-14T11:25:30.819Z,95367.94
2024-02-14T11:27:58.199Z,95397.88
2024-02-14T11:30:30.084Z,95370.09
2024-02-14T11:32:57.070Z,95374.44
2024-02-14T11:35:24.292Z,95344.88
2024-02-14T11:37:54.797Z,95322.53
2024-02-14T11:40:22.173Z,95350.22
2024-02-14T11:42:49.025Z,95359.91
2024-02-14T11:45:16.045Z,95358.72
2024-02-14T11:47:43.126Z,95343.03
2024-02-14T11:50:11.211Z,95328.94
2024-02-14T11:52:38.318Z,95314.81
2024-02-14T11:55:05.165Z,95323.09
2024-02-14T11:57:32.020Z,95318.31
2024-02-14T11:59:59.180Z,95312.91
2024-02-14T12:02:25.984Z,95307.69
2024-02-14T12:04:55.393Z,95292.81
2024-02-14T12:07:23.511Z,95307.69
2024-02-14T12:09:50.421Z,95287.66
2024-02-14T12:12:17.568Z,95320.34
2024-02-14T12:14:45.092Z,95310.34
2024-02-14T12:17:11.920Z,95303.38
2024-02-14T12:19:39.652Z,95306.72
2024-02-14T12:22:12.918Z,95329.81
2024-02-14T12:24:39.645Z,95315.97
2024-02-14T12:27:06.990Z,95287.25
2024-02-14T12:29:36.162Z,95290.88
2024-02-14T12:32:09.276Z,95285.13
2024-02-14T12:34:36.954Z,95289.06
2024-02-14T12:37:06.624Z,95299.16
2024-02-14T12:39:33.346Z,95282.69
2024-02-14T12:42:03.569Z,95300.53
2024-02-14T12:44:30.387Z,95273.44
2024-02-14T12:46:58.060Z,95300.78
2024-02-14T12:49:27.373Z,95284.84
2024-02-14T12:51:54.186Z,95295.16
2024-02-14T12:54:20.831Z,95271.56
2024-02-14T12:56:47.554Z,95253.25
2024-02-14T12:59:19.335Z,95258.75
2024-02-14T13:01:46.347Z,95267.16
2024-02-14T13:04:13.326Z,95274.41
2024-02-14T13:06:40.203Z,95290.06
2024-02-14T13:09:07.320Z,95288.06
2024-02-14T13:11:34.246Z,95284.09
2024-02-14T13:14:01.028Z,95281.00
2024-02-14T13:16:27.850Z,95261.91
2024-02-14T13:18:54.924Z,95282.44
2024-02-14T13:21:21.653Z,95266.09
2024-02-14T13:23:49.119Z,95272.88
2024-02-14T13:26:15.961Z,95287.91
2024-02-14T13:28:42.592Z,95251.63
2024-02-14T13:31:11.426Z,95284.31
2024-02-14T13:33:38.416Z,95275.81
2024-02-14T13:36:06.209Z,95292.81
2024-02-14T13:38:32.899Z,95288.25
2024-02-14T13:41:00.688Z,95280.03
2024-02-14T13:43:27.401Z,95282.63
2024-02-14T13:45:54.091Z,95283.78
2024-02-14T13:48:20.943Z,95282.19
2024-02-14T13:50:47.738Z,95282.44
2024-02-14T13:53:14.412Z,95264.06
2024-02-14T13:55:41.318Z,95271.28
2024-02-14T13:58:10.923Z,95263.75
2024-02-14T14:00:37.812Z,95275.88
2024-02-14T14:03:04.682Z,95260.34
2024-02-14T14:05:31.513Z,95291.66
2024-02-14T14:08:00.083Z,95269.19
2024-02-14T14:10:28.105Z,95283.50
2024-02-14T14:12:55.331Z,95276.69
2024-02-14T14:15:23.874Z,95276.13
2024-02-14T14:17:51.389Z,95279.66
2024-02-14T14:20:19.918Z,95290.00
2024-02-14T14:22:46.797Z,95267.75
2024-02-14T14:25:13.582Z,95287.56
2024-02-14T14:27:40.283Z,95288.72
2024-02-14T14:30:08.381Z,95272.53
2024-02-14T14:32:35.282Z,95238.22
2024-02-14T14:35:02.190Z,95285.69
2024-02-14T14:37:28.929Z,95232.31
2024-02-14T14:39:57.473Z,95270.44
2024-02-14T14:42:24.389Z,95279.63
2024-02-14T14:44:51.291Z,95285.28
2024-02-14T14:47:18.445Z,95271.31
2024-02-14T14:49:45.204Z,95279.19
2024-02-14T14:52:11.974Z,95277.44
2024-02-14T14:54:38.940Z,95278.28
2024-02-14T14:57:10.916Z,95295.19
2024-02-14T14:59:37.911Z,95261.44
2024-02-14T15:02:06.701Z,95256.53
2024-02-14T15:04:35.901Z,95259.44
2024-02-14T15:07:03.573Z,95260.78
2024-02-14T15:09:32.157Z,95298.97
2024-02-14T15:12:00.380Z,95268.69
2024-02-14T15:14:27.869Z,95283.88
2024-02-14T15:16:54.605Z,95284.03
2024-02-14T15:19:22.722Z,95290.38
2024-02-14T15:21:50.584Z,95299.91
2024-02-14T15:24:17.645Z,95278.16
2024-02-14T15:27:02.546Z,95298.25
2024-02-14T15:29:48.685Z,95301.84
2024-02-14T15:32:34.465Z,95285.34
2024-02-14T15:35:01.299Z,95291.72
2024-02-14T15:37:27.963Z,95295.97
2024-02-14T15:39:54.936Z,95304.47
2024-02-14T15:42:21.632Z,95308.19
2024-02-14T15:44:48.419Z,95307.28
2024-02-14T15:47:16.354Z,95303.34
2024-02-14T15:49:43.056Z,95321.41
2024-02-14T15:52:09.740Z,95316.13
2024-02-14T15:54:37.935Z,95312.41
2024-02-14T15:57:04.641Z,95317.56
2024-02-14T15:59:31.313Z,95307.44
2024-02-14T16:01:57.995Z,95316.19
2024-02-14T16:04:26.324Z,95312.28
2024-02-14T16:06:53.098Z,95314.38
2024-02-14T16:09:20.181Z,95329.38
2024-02-14T16:11:47.254Z,95319.69
2024-02-14T16:14:14.696Z,95324.38
2024-02-14T16:16:41.400Z,95319.56
2024-02-14T16:19:08.178Z,95320.09
2024-02-14T16:21:35.090Z,95317.84
2024-02-14T16:24:01.860Z,95316.56
2024-02-14T16:26:31.015Z,95326.81
2024-02-14T16:28:58.111Z,95329.78
2024-02-14T16:31:24.801Z,95331.25
2024-02-14T16:33:51.560Z,95332.31
2024-02-14T16:36:18.372Z,95324.53
2024-02-14T16:38:45.072Z,95328.75
2024-02-14T16:41:12.142Z,95339.41
2024-02-14T16:43:39.132Z,95338.81
2024-02-14T16:46:06.005Z,95336.28
2024-02-14T16:48:32.986Z,95335.13
2024-02-14T16:50:59.827Z,95339.63
2024-02-14T16:53:26.617Z,95339.25
2024-02-14T16:55:53.275Z,95342.13
2024-02-14T16:58:19.910Z,95347.94
2024-02-14T17:00:46.689Z,95344.03
2024-02-14T17:03:16.923Z,95340.28
2024-02-14T17:05:45.876Z,95346.31
2024-02-14T17:08:12.837Z,95343.28
2024-02-14T17:10:39.876Z,95344.81
2024-02-14T17:13:08.460Z,95344.75
2024-02-14T17:15:36.077Z,95352.94
2024-02-14T17:18:03.147Z,95344.47
2024-02-14T17:20:30.014Z,95351.81
2024-02-14T17:22:56.637Z,95347.09
2024-02-14T17:25:23.275Z,95356.78
2024-02-14T17:27:49.974Z,95360.47
2024-02-14T17:30:17.384Z,95366.69
2024-02-14T17:32:49.725Z,95369.63
2024-02-14T17:35:17.465Z,95363.50
2024-02-14T17:37:44.272Z,95365.31
2024-02-14T17:40:11.293Z,95360.09
2024-02-14T17:42:38.028Z,95363.41
2024-02-14T17:45:08.489Z,95368.03
2024-02-14T17:47:35.921Z,95378.41
2024-02-14T17:50:04.296Z,95375.69
2024-02-14T17:52:31.073Z,95380.81
2024-02-14T17:54:57.886Z,95374.16
2024-02-14T17:57:25.875Z,95374.56
2024-02-14T17:59:53.147Z,95379.00
2024-02-14T18:02:19.875Z,95370.91
2024-02-14T18:04:46.968Z,95376.66
2024-02-14T18:07:13.785Z,95385.69
2024-02-14T18:09:40.608Z,95381.06
2024-02-14T18:12:07.479Z,95386.91
2024-02-14T18:14:34.342Z,95382.88
2024-02-14T18:17:01.475Z,95391.19
2024-02-14T18:19:28.397Z,95380.59
2024-02-14T18:21:55.119Z,95383.88
2024-02-14T18:24:21.954Z,95382.88
2024-02-14T18:26:48.769Z,95375.00
2024-02-14T18:29:15.631Z,95377.72
2024-02-14T18:31:42.591Z,95380.09
2024-02-14T18:34:09.418Z,95366.50
2024-02-14T18:36:36.211Z,95363.19
2024-02-14T18:39:03.181Z,95361.75
2024-02-14T18:41:29.957Z,95353.03
2024-02-14T18:44:00.010Z,95356.47
2024-02-14T18:46:29.549Z,95357.84
2024-02-14T18:48:56.399Z,95360.44
2024-02-14T18:51:23.475Z,95358.56
2024-02-14T18:53:52.030Z,95360.25
2024-02-14T18:56:21.176Z,95366.31
2024-02-14T18:58:48.381Z,95359.88
2024-02-14T19:01:29.092Z,95358.09
2024-02-14T19:10:42.764Z,95350.03
2024-02-14T19:13:09.560Z,95362.69
2024-02-14T19:15:37.315Z,95358.13
2024-02-14T19:18:04.311Z,95351.81
2024-02-14T19:20:31.867Z,95346.00
2024-02-14T19:22:58.542Z,95357.78
2024-02-14T19:25:25.652Z,95338.16
2024-02-14T19:27:52.516Z,95340.00
2024-02-14T19:30:19.540Z,95341.66
2024-02-14T19:32:46.566Z,95346.31
2024-02-14T19:35:13.333Z,95347.13
2024-02-14T19:37:40.212Z,95348.72
2024-02-14T19:40:09.027Z,95345.28
2024-02-14T19:42:35.713Z,95349.50
2024-02-14T19:45:02.490Z,95348.59
2024-02-14T19:47:30.127Z,95347.19
2024-02-14T19:49:57.113Z,95344.81
2024-02-14T19:52:24.210Z,95342.63
2024-02-14T19:54:51.056Z,95347.66
2024-02-14T19:57:17.820Z,95341.84
2024-02-14T19:59:44.826Z,95344.00
2024-02-14T20:02:11.469Z,95341.31
2024-02-14T20:04:38.573Z,95342.38
2024-02-14T20:07:08.641Z,95340.00
2024-02-14T20:09:35.388Z,95338.16
2024-02-14T20:12:02.118Z,95346.59
2024-02-14T20:14:28.972Z,95342.19
2024-02-14T20:16:56.049Z,95345.78
2024-02-14T20:19:22.845Z,95357.59
2024-02-14T20:21:50.756Z,95351.16
2024-02-14T20:24:17.516Z,95355.09
2024-02-14T20:26:44.345Z,95359.50
2024-02-14T20:29:11.119Z,95363.28
2024-02-14T20:31:38.752Z,95366.28
2024-02-14T20:34:05.961Z,95364.69
2024-02-14T20:36:36.359Z,95361.91
2024-02-14T20:39:04.154Z,95366.13
2024-02-14T20:41:31.352Z,95370.66
2024-02-14T20:43:58.125Z,95366.22
2024-02-14T20:46:27.963Z,95366.94
2024-02-14T20:48:54.953Z,95367.81
2024-02-14T20:51:22.120Z,95369.22
2024-02-14T20:53:49.304Z,95366.38
2024-02-14T20:56:16.031Z,95364.31
2024-02-14T20:58:56.364Z,95362.00
2024-02-14T21:01:28.579Z,95361.00
2024-02-14T21:03:57.234Z,95360.41
2024-02-14T21:06:24.194Z,95357.56
2024-02-14T21:08:53.533Z,95358.53
2024-02-14T21:11:20.273Z,95360.69
2024-02-14T21:13:47.013Z,95348.91
2024-02-14T21:16:13.854Z,95357.81
2024-02-14T21:18:40.626Z,95357.28
2024-02-14T21:21:07.916Z,95354.75
2024-02-14T21:23:35.103Z,95353.72
2024-02-14T21:26:01.846Z,95351.25
2024-02-14T21:28:28.858Z,95355.31
2024-02-14T21:30:55.511Z,95347.63
2024-02-14T21:33:26.038Z,95357.41
2024-02-14T21:35:57.891Z,95362.44
2024-02-14T21:38:24.745Z,95366.53
2024-02-14T21:40:51.353Z,95350.38
2024-02-14T21:43:18.024Z,95353.53
2024-02-14T21:45:44.644Z,95353.47
2024-02-14T21:48:11.559Z,95350.47
2024-02-14T21:50:38.345Z,95358.69
2024-02-14T21:53:05.041Z,95356.44
2024-02-14T21:55:31.610Z,95350.00
2024-02-14T21:57:58.251Z,95353.47
2024-02-14T22:00:24.877Z,95348.72
2024-02-14T22:02:53.013Z,95346.50
2024-02-14T22:05:21.882Z,95340.19
2024-02-14T22:07:48.870Z,95340.50
2024-02-14T22:10:16.116Z,95336.03
2024-02-14T22:12:43.243Z,95335.53
2024-02-14T22:15:10.790Z,95338.66
2024-02-14T22:17:38.963Z,95343.91
2024-02-14T22:20:07.178Z,95337.91
2024-02-14T22:22:35.500Z,95333.28
2024-02-14T22:25:02.401Z,95335.25
2024-02-14T22:27:29.957Z,95347.63
2024-02-14T22:29:57.148Z,95342.41
2024-02-14T22:32:24.008Z,95345.38
2024-02-14T22:34:52.155Z,95339.97
2024-02-14T22:37:19.334Z,95347.19
2024-02-14T22:39:45.961Z,95346.72
2024-02-14T22:42:12.989Z,95343.47
2024-02-14T22:44:40.113Z,95335.13
2024-02-14T22:47:09.152Z,95339.88
2024-02-14T22:49:35.931Z,95334.75
2024-02-14T22:52:02.992Z,95329.09
2024-02-14T22:54:29.605Z,95338.56
2024-02-14T22:56:56.310Z,95323.88
2024-02-14T22:59:23.785Z,95330.09
2024-02-14T23:01:50.445Z,95333.25
2024-02-14T23:04:17.191Z,95330.09
2024-02-14T23:06:44.170Z,95330.63
2024-02-14T23:09:11.274Z,95334.44
2024-02-14T23:11:40.879Z,95337.25
2024-02-14T23:14:07.943Z,95335.72
2024-02-14T23:16:35.109Z,95338.19
2024-02-14T23:19:02.307Z,95336.19
2024-02-14T23:21:29.514Z,95334.69
2024-02-14T23:23:56.264Z,95338.03
2024-02-14T23:26:22.867Z,95330.72
2024-02-14T23:28:49.534Z,95332.53
2024-02-14T23:31:16.609Z,95337.09
2024-02-14T23:33:43.868Z,95339.41
2024-02-14T23:36:11.746Z,95339.00
2024-02-14T23:38:40.218Z,95334.34
2024-02-14T23:41:06.931Z,95332.81
2024-02-14T23:43:33.774Z,95342.03
2024-02-14T23:46:00.374Z,95340.69
2024-02-14T23:48:27.261Z,95337.66
2024-02-14T23:50:54.052Z,95335.88
2024-02-14T23:53:20.859Z,95329.13
2024-02-14T23:55:47.600Z,95327.63
2024-02-14T23:58:15.890Z,95327.25
